Marble Falls, TX

11:52 PM CDT on September 17, 2014 (GMT -0500)
Water Treatment Plant | Change Station
CLOSE
Current Station
Personal Weather Station
Location: Meadowlakes, TX
Elevation: 800 ft
Nearby Weather Stations

Elev 800 ft 30.56 °N, 98.29 °W | Updated 9 seconds ago

Mostly Cloudy
Mostly Cloudy
80.1 °F
Feels Like 85 °F
N
2.0
Wind Variable Wind from ESE
Gusts 6.0 mph

Today
High -- | Low -- °F
--% Chance of Precip.
Yesterday
High -- | Low -- °F
Precip. -- in
7:18 AM 7:36 PM
Waning Crescent, 30% visible
Pressure 29.92 in
Visibility 10.0 miles
Clouds Mostly Cloudy 7000 ft
Mostly Cloudy 12000 ft
Heat Index 85 °F
Dew Point 74 °F
Humidity 82%
Rainfall 2.64 in
Snow Depth Not available.
UV 0 out of 12
Pollen 8.20 out of 12
Air Quality Not available.
Flu Activity Not available.
METAR KDZB 180435Z AUTO 15003KT 10SM BKN070 BKN120 26/21 A2992 RMK AO2 LTG DSNT NE AND E T02630212

More Conditions Fewer Conditions

Pressure 29.92 in
Visibility 10.0 miles
Clouds Mostly Cloudy 7000 ft
Mostly Cloudy 12000 ft
Heat Index 85 °F
Dew Point 74 °F
Humidity 82%
Rainfall 2.64 in
Snow Depth Not available.
UV 0 out of 12
Pollen 8.20 out of 12
Air Quality Not available.
Flu Activity Not available.
METAR KDZB 180435Z AUTO 15003KT 10SM BKN070 BKN120 26/21 A2992 RMK AO2 LTG DSNT NE AND E T02630212

More Conditions Fewer Conditions

Nowcast | as of 10:05 PM CDT on September 17, 2014

Flash Flood Watch in effect through Thursday evening... Through 1 am...scattered to numerous showers and thunderstorms will affect the central...north...and northeast portions of south- central Texas. Movement of the convection will be to the northeast at around 7 mph. However...additional showers and thunderstorms are approaching the area from the northeast at around 8 mph. Any of the thunderstorms through the next few hours will have the ability to produce frequent lightning...wind gusts up to 40 mph...and very heavy rainfall with flooding in low-lying and poorly draining areas.

×

10-Day Weather Forecast

Almanac

Astronomy

Sep. 17, 2014 Rise Set
Actual Time 7:18 AM CDT 7:36 PM CDT
Civil Twilight 6:54 AM CDT 8:00 PM CDT
Nautical Twilight 6:26 AM CDT 8:28 PM CDT
Astronomical Twilight 5:58 AM CDT 8:56 PM CDT
Moon 1:37 AM CDT (9/17) 3:30 PM CDT (9/17)
Length of Visible Light 13h 05m
Length of Day
12h 17m
Tomorrow will be 1m 50s shorter.
Waning Crescent, 30% of the Moon is Illuminated
Sep 18
Waning Crescent
Sep 24
New
Oct 1
First Quarter
Oct 8
Full
Oct 15
Last Quarter

Yesterday's Extremes

State Highs State Lows

Community

WunderPhotos

Upload Photos

1,754,295 photos uploaded!

Nearby

Snow Depth

Station Depth Elevation
No new snow has been reported.

Earthquake Activity

City Distance Mag. Time & Date
No recent earthquake activity has been reported nearby.
Minimum magnitude displayed is 2.5.

Coastal Water Temperatures

Place Temperature
No Stations Reporting

Nearby Weather Stations